sensor_id;sensor_type;location;lat;lon;timestamp;pressure;altitude;pressure_sealevel;temperature;humidity
45323;BME280;31382;50.200;8.674;2023-04-10T00:00:11;101041.38;;;7.56;59.09
45323;BME280;31382;50.200;8.674;2023-04-10T00:05:12;101055.63;;;7.47;59.31
45323;BME280;31382;50.200;8.674;2023-04-10T00:10:14;101052.50;;;7.42;59.43
45323;BME280;31382;50.200;8.674;2023-04-10T00:15:15;101059.81;;;7.40;59.16
45323;BME280;31382;50.200;8.674;2023-04-10T00:20:16;101055.31;;;7.40;59.45
45323;BME280;31382;50.200;8.674;2023-04-10T00:25:18;101048.84;;;7.33;59.49
45323;BME280;31382;50.200;8.674;2023-04-10T00:30:19;101056.00;;;7.32;58.99
45323;BME280;31382;50.200;8.674;2023-04-10T00:35:21;101053.31;;;7.32;59.56
45323;BME280;31382;50.200;8.674;2023-04-10T00:40:23;101044.75;;;7.29;59.18
45323;BME280;31382;50.200;8.674;2023-04-10T00:45:24;101053.16;;;7.24;59.01
45323;BME280;31382;50.200;8.674;2023-04-10T00:50:26;101055.53;;;7.18;60.33
45323;BME280;31382;50.200;8.674;2023-04-10T00:55:27;101049.63;;;7.14;59.79
45323;BME280;31382;50.200;8.674;2023-04-10T01:00:29;101052.72;;;7.09;60.16
45323;BME280;31382;50.200;8.674;2023-04-10T01:05:34;101051.00;;;7.08;59.58
45323;BME280;31382;50.200;8.674;2023-04-10T01:11:00;101055.75;;;6.95;60.14
45323;BME280;31382;50.200;8.674;2023-04-10T01:16:26;101057.84;;;6.91;59.80
45323;BME280;31382;50.200;8.674;2023-04-10T01:21:30;101051.38;;;6.94;60.26
45323;BME280;31382;50.200;8.674;2023-04-10T01:32:13;101057.69;;;6.83;60.26
45323;BME280;31382;50.200;8.674;2023-04-10T01:37:18;101059.19;;;6.76;60.33
45323;BME280;31382;50.200;8.674;2023-04-10T01:42:21;101051.31;;;6.74;61.01
45323;BME280;31382;50.200;8.674;2023-04-10T01:47:24;101052.84;;;6.77;60.28
45323;BME280;31382;50.200;8.674;2023-04-10T01:52:27;101052.09;;;6.65;60.93
45323;BME280;31382;50.200;8.674;2023-04-10T01:57:30;101042.84;;;6.69;60.72
45323;BME280;31382;50.200;8.674;2023-04-10T02:02:32;101031.47;;;6.77;61.08
45323;BME280;31382;50.200;8.674;2023-04-10T02:08:00;101031.06;;;6.72;60.42
45323;BME280;31382;50.200;8.674;2023-04-10T02:13:05;101033.69;;;6.62;61.05
45323;BME280;31382;50.200;8.674;2023-04-10T02:18:08;101027.50;;;6.62;60.97
45323;BME280;31382;50.200;8.674;2023-04-10T02:23:10;101013.09;;;6.53;60.88
45323;BME280;31382;50.200;8.674;2023-04-10T02:28:12;101010.19;;;6.56;61.12
45323;BME280;31382;50.200;8.674;2023-04-10T02:33:13;101019.81;;;6.47;61.36
45323;BME280;31382;50.200;8.674;2023-04-10T02:38:15;101026.63;;;6.30;61.83
45323;BME280;31382;50.200;8.674;2023-04-10T02:43:17;101026.75;;;6.08;62.24
45323;BME280;31382;50.200;8.674;2023-04-10T02:48:19;101033.00;;;5.97;62.10
45323;BME280;31382;50.200;8.674;2023-04-10T02:53:20;101021.41;;;6.08;62.27
45323;BME280;31382;50.200;8.674;2023-04-10T02:58:23;101029.28;;;6.09;61.64
45323;BME280;31382;50.200;8.674;2023-04-10T03:03:24;101020.88;;;6.14;62.27
45323;BME280;31382;50.200;8.674;2023-04-10T03:08:26;101013.59;;;6.16;62.12
45323;BME280;31382;50.200;8.674;2023-04-10T03:13:27;101006.69;;;6.13;62.23
45323;BME280;31382;50.200;8.674;2023-04-10T03:18:29;101007.94;;;6.09;62.01
45323;BME280;31382;50.200;8.674;2023-04-10T03:23:32;101003.44;;;6.10;61.72
45323;BME280;31382;50.200;8.674;2023-04-10T03:28:33;101000.84;;;6.20;61.87
45323;BME280;31382;50.200;8.674;2023-04-10T03:33:36;100990.75;;;6.23;61.85
45323;BME280;31382;50.200;8.674;2023-04-10T03:38:38;100998.75;;;6.23;62.12
45323;BME280;31382;50.200;8.674;2023-04-10T03:43:39;100995.66;;;6.18;61.62
45323;BME280;31382;50.200;8.674;2023-04-10T03:48:41;100986.53;;;6.21;62.22
45323;BME280;31382;50.200;8.674;2023-04-10T03:53:42;100989.19;;;6.21;62.18
45323;BME280;31382;50.200;8.674;2023-04-10T03:58:43;100981.19;;;6.21;61.80
45323;BME280;31382;50.200;8.674;2023-04-10T04:03:45;100986.47;;;6.11;62.17
45323;BME280;31382;50.200;8.674;2023-04-10T04:08:46;100982.81;;;6.12;62.32
45323;BME280;31382;50.200;8.674;2023-04-10T04:13:48;100984.19;;;6.06;62.83
45323;BME280;31382;50.200;8.674;2023-04-10T04:18:49;100984.19;;;6.06;62.55
45323;BME280;31382;50.200;8.674;2023-04-10T04:23:50;100978.72;;;6.08;62.37
45323;BME280;31382;50.200;8.674;2023-04-10T04:28:52;100990.25;;;6.08;62.94
45323;BME280;31382;50.200;8.674;2023-04-10T04:33:53;100991.34;;;6.06;63.07
45323;BME280;31382;50.200;8.674;2023-04-10T04:38:55;100986.59;;;6.09;62.62
45323;BME280;31382;50.200;8.674;2023-04-10T04:43:57;100985.88;;;6.07;62.28
45323;BME280;31382;50.200;8.674;2023-04-10T04:48:59;100992.25;;;5.95;62.96
45323;BME280;31382;50.200;8.674;2023-04-10T04:54:00;100988.53;;;6.07;62.69
45323;BME280;31382;50.200;8.674;2023-04-10T04:59:01;100996.88;;;6.14;62.36
45323;BME280;31382;50.200;8.674;2023-04-10T05:04:04;100989.13;;;6.11;63.05
45323;BME280;31382;50.200;8.674;2023-04-10T05:09:05;100998.09;;;6.10;62.24
45323;BME280;31382;50.200;8.674;2023-04-10T05:14:07;100997.84;;;6.13;62.68
45323;BME280;31382;50.200;8.674;2023-04-10T05:19:08;100989.78;;;6.24;62.86
45323;BME280;31382;50.200;8.674;2023-04-10T05:24:09;100998.56;;;6.36;62.50
45323;BME280;31382;50.200;8.674;2023-04-10T05:29:11;100998.84;;;6.43;62.42
45323;BME280;31382;50.200;8.674;2023-04-10T05:34:12;101000.88;;;6.50;62.58
45323;BME280;31382;50.200;8.674;2023-04-10T05:39:14;101005.84;;;6.65;62.03
45323;BME280;31382;50.200;8.674;2023-04-10T05:44:16;101004.06;;;6.75;62.85
45323;BME280;31382;50.200;8.674;2023-04-10T05:49:17;101009.88;;;6.90;62.45
45323;BME280;31382;50.200;8.674;2023-04-10T05:54:18;101000.91;;;7.01;61.90
45323;BME280;31382;50.200;8.674;2023-04-10T05:59:20;101002.91;;;7.18;62.41
45323;BME280;31382;50.200;8.674;2023-04-10T06:04:21;101005.34;;;7.31;62.50
45323;BME280;31382;50.200;8.674;2023-04-10T06:09:23;101001.53;;;7.43;62.00
45323;BME280;31382;50.200;8.674;2023-04-10T06:14:24;101007.47;;;7.57;61.66
45323;BME280;31382;50.200;8.674;2023-04-10T06:19:26;100998.88;;;7.72;62.27
45323;BME280;31382;50.200;8.674;2023-04-10T06:24:27;100998.88;;;7.92;62.57
45323;BME280;31382;50.200;8.674;2023-04-10T06:29:29;100999.81;;;8.10;61.77
45323;BME280;31382;50.200;8.674;2023-04-10T06:34:30;100992.03;;;8.27;61.38
45323;BME280;31382;50.200;8.674;2023-04-10T06:39:31;100979.75;;;8.44;61.67
45323;BME280;31382;50.200;8.674;2023-04-10T06:44:33;100989.00;;;8.59;61.23
45323;BME280;31382;50.200;8.674;2023-04-10T06:49:34;100987.22;;;8.78;61.59
45323;BME280;31382;50.200;8.674;2023-04-10T06:54:36;100985.06;;;8.91;61.30
45323;BME280;31382;50.200;8.674;2023-04-10T06:59:37;100992.88;;;9.02;61.36
45323;BME280;31382;50.200;8.674;2023-04-10T07:04:39;100987.09;;;9.25;60.62
45323;BME280;31382;50.200;8.674;2023-04-10T07:09:40;100981.28;;;9.47;60.32
45323;BME280;31382;50.200;8.674;2023-04-10T07:14:42;100981.81;;;9.69;60.25
45323;BME280;31382;50.200;8.674;2023-04-10T07:19:43;100978.78;;;9.90;59.99
45323;BME280;31382;50.200;8.674;2023-04-10T07:24:44;100986.66;;;10.09;59.90
45323;BME280;31382;50.200;8.674;2023-04-10T07:29:46;100970.72;;;10.34;59.29
45323;BME280;31382;50.200;8.674;2023-04-10T07:34:47;100965.47;;;10.50;59.14
45323;BME280;31382;50.200;8.674;2023-04-10T07:39:49;100964.53;;;10.76;58.94
45323;BME280;31382;50.200;8.674;2023-04-10T07:44:50;100959.41;;;10.99;57.79
45323;BME280;31382;50.200;8.674;2023-04-10T07:49:52;100959.13;;;11.27;57.53
45323;BME280;31382;50.200;8.674;2023-04-10T07:54:53;100961.53;;;11.38;57.49
45323;BME280;31382;50.200;8.674;2023-04-10T07:59:56;100951.28;;;11.58;56.97
45323;BME280;31382;50.200;8.674;2023-04-10T08:04:57;100945.03;;;11.74;56.70
45323;BME280;31382;50.200;8.674;2023-04-10T08:09:58;100944.03;;;12.00;56.06
45323;BME280;31382;50.200;8.674;2023-04-10T08:15:00;100926.97;;;12.24;55.16
45323;BME280;31382;50.200;8.674;2023-04-10T08:20:03;100928.28;;;12.44;54.96
45323;BME280;31382;50.200;8.674;2023-04-10T08:25:05;100927.88;;;12.64;54.56
45323;BME280;31382;50.200;8.674;2023-04-10T08:30:06;100914.41;;;12.87;54.02
45323;BME280;31382;50.200;8.674;2023-04-10T08:35:08;100902.63;;;13.11;53.55
45323;BME280;31382;50.200;8.674;2023-04-10T08:40:09;100898.97;;;13.35;53.15
45323;BME280;31382;50.200;8.674;2023-04-10T08:45:12;100884.97;;;13.55;52.76
45323;BME280;31382;50.200;8.674;2023-04-10T08:50:14;100875.78;;;13.79;52.27
45323;BME280;31382;50.200;8.674;2023-04-10T08:55:18;100870.59;;;14.07;51.42
45323;BME280;31382;50.200;8.674;2023-04-10T09:00:20;100870.75;;;14.35;50.43
45323;BME280;31382;50.200;8.674;2023-04-10T09:05:27;100859.09;;;14.64;49.43
45323;BME280;31382;50.200;8.674;2023-04-10T09:10:29;100849.91;;;15.02;48.54
45323;BME280;31382;50.200;8.674;2023-04-10T09:15:54;100836.03;;;15.33;47.40
45323;BME280;31382;50.200;8.674;2023-04-10T09:21:05;100831.03;;;15.58;46.58
45323;BME280;31382;50.200;8.674;2023-04-10T09:26:23;100815.06;;;15.98;45.75
45323;BME280;31382;50.200;8.674;2023-04-10T09:31:36;100802.25;;;16.27;44.77
45323;BME280;31382;50.200;8.674;2023-04-10T09:36:41;100797.59;;;16.69;44.32
45323;BME280;31382;50.200;8.674;2023-04-10T09:41:50;100792.47;;;16.94;42.87
45323;BME280;31382;50.200;8.674;2023-04-10T09:46:52;100791.63;;;17.07;42.80
45323;BME280;31382;50.200;8.674;2023-04-10T09:51:54;100788.28;;;17.25;41.97
45323;BME280;31382;50.200;8.674;2023-04-10T09:56:56;100772.38;;;17.35;41.13
45323;BME280;31382;50.200;8.674;2023-04-10T10:01:58;100771.53;;;17.41;40.96
45323;BME280;31382;50.200;8.674;2023-04-10T10:07:00;100756.91;;;17.56;40.40
45323;BME280;31382;50.200;8.674;2023-04-10T10:12:02;100745.34;;;17.74;40.06
45323;BME280;31382;50.200;8.674;2023-04-10T10:17:07;100745.16;;;17.75;39.45
45323;BME280;31382;50.200;8.674;2023-04-10T10:22:12;100731.72;;;17.94;39.11
45323;BME280;31382;50.200;8.674;2023-04-10T10:27:16;100720.97;;;18.12;38.91
45323;BME280;31382;50.200;8.674;2023-04-10T10:32:20;100721.03;;;18.37;38.53
45323;BME280;31382;50.200;8.674;2023-04-10T10:37:22;100707.47;;;18.62;37.98
45323;BME280;31382;50.200;8.674;2023-04-10T10:47:39;100679.53;;;19.42;36.55
45323;BME280;31382;50.200;8.674;2023-04-10T10:52:52;100687.91;;;19.85;35.87
45323;BME280;31382;50.200;8.674;2023-04-10T10:57:55;100673.78;;;20.18;35.73
45323;BME280;31382;50.200;8.674;2023-04-10T11:08:08;100664.13;;;20.76;34.68
45323;BME280;31382;50.200;8.674;2023-04-10T11:13:16;100647.25;;;21.03;34.87
45323;BME280;31382;50.200;8.674;2023-04-10T11:18:18;100630.84;;;21.26;33.62
45323;BME280;31382;50.200;8.674;2023-04-10T11:23:21;100607.69;;;21.17;33.05
45323;BME280;31382;50.200;8.674;2023-04-10T11:33:35;100598.69;;;21.57;32.76
45323;BME280;31382;50.200;8.674;2023-04-10T11:38:38;100593.78;;;21.71;32.57
45323;BME280;31382;50.200;8.674;2023-04-10T11:43:39;100579.81;;;21.84;32.20
45323;BME280;31382;50.200;8.674;2023-04-10T11:48:40;100577.25;;;21.94;32.04
45323;BME280;31382;50.200;8.674;2023-04-10T11:53:42;100565.13;;;21.90;31.30
45323;BME280;31382;50.200;8.674;2023-04-10T11:58:43;100553.84;;;21.87;31.28
45323;BME280;31382;50.200;8.674;2023-04-10T12:03:45;100554.78;;;21.92;31.37
45323;BME280;31382;50.200;8.674;2023-04-10T12:08:47;100541.66;;;21.94;31.17
45323;BME280;31382;50.200;8.674;2023-04-10T12:13:55;100530.47;;;21.96;31.34
45323;BME280;31382;50.200;8.674;2023-04-10T12:18:57;100529.78;;;22.06;31.06
45323;BME280;31382;50.200;8.674;2023-04-10T12:23:59;100515.53;;;22.21;31.10
45323;BME280;31382;50.200;8.674;2023-04-10T12:29:00;100512.47;;;22.17;30.76
45323;BME280;31382;50.200;8.674;2023-04-10T12:34:02;100505.91;;;22.18;30.51
45323;BME280;31382;50.200;8.674;2023-04-10T12:39:21;100491.91;;;22.31;29.84
45323;BME280;31382;50.200;8.674;2023-04-10T12:44:22;100481.78;;;22.71;29.97
45323;BME280;31382;50.200;8.674;2023-04-10T12:49:23;100483.22;;;22.95;28.90
45323;BME280;31382;50.200;8.674;2023-04-10T12:54:33;100474.19;;;23.17;28.01
45323;BME280;31382;50.200;8.674;2023-04-10T12:59:35;100469.44;;;23.34;27.05
45323;BME280;31382;50.200;8.674;2023-04-10T13:04:37;100449.53;;;23.22;26.98
45323;BME280;31382;50.200;8.674;2023-04-10T13:09:39;100449.84;;;23.26;26.61
45323;BME280;31382;50.200;8.674;2023-04-10T13:14:40;100441.59;;;23.21;26.12
45323;BME280;31382;50.200;8.674;2023-04-10T13:19:42;100424.69;;;23.34;25.86
45323;BME280;31382;50.200;8.674;2023-04-10T13:24:44;100433.38;;;23.53;25.25
45323;BME280;31382;50.200;8.674;2023-04-10T13:29:45;100411.00;;;23.93;25.42
45323;BME280;31382;50.200;8.674;2023-04-10T13:34:46;100404.34;;;23.89;24.96
45323;BME280;31382;50.200;8.674;2023-04-10T13:39:48;100401.00;;;24.25;24.67
45323;BME280;31382;50.200;8.674;2023-04-10T13:44:49;100395.25;;;24.21;24.75
45323;BME280;31382;50.200;8.674;2023-04-10T13:49:50;100386.78;;;24.33;24.28
45323;BME280;31382;50.200;8.674;2023-04-10T13:54:52;100378.25;;;24.29;23.48
45323;BME280;31382;50.200;8.674;2023-04-10T13:59:53;100369.16;;;23.81;23.63
45323;BME280;31382;50.200;8.674;2023-04-10T14:04:54;100363.97;;;23.52;23.61
45323;BME280;31382;50.200;8.674;2023-04-10T14:09:56;100357.56;;;23.42;23.46
45323;BME280;31382;50.200;8.674;2023-04-10T14:14:58;100353.16;;;23.41;23.31
45323;BME280;31382;50.200;8.674;2023-04-10T14:19:59;100337.44;;;23.31;23.50
45323;BME280;31382;50.200;8.674;2023-04-10T14:25:00;100338.41;;;23.14;23.67
45323;BME280;31382;50.200;8.674;2023-04-10T14:30:14;100327.38;;;23.09;23.59
45323;BME280;31382;50.200;8.674;2023-04-10T14:35:15;100318.63;;;23.12;23.53
45323;BME280;31382;50.200;8.674;2023-04-10T14:40:17;100307.44;;;23.19;23.73
45323;BME280;31382;50.200;8.674;2023-04-10T14:45:18;100291.31;;;23.23;23.62
45323;BME280;31382;50.200;8.674;2023-04-10T14:50:19;100284.53;;;23.35;23.64
45323;BME280;31382;50.200;8.674;2023-04-10T14:55:21;100270.28;;;23.76;23.22
45323;BME280;31382;50.200;8.674;2023-04-10T15:00:22;100262.38;;;23.47;23.37
45323;BME280;31382;50.200;8.674;2023-04-10T15:05:27;100250.72;;;23.25;23.13
45323;BME280;31382;50.200;8.674;2023-04-10T15:10:28;100244.38;;;22.92;23.43
45323;BME280;31382;50.200;8.674;2023-04-10T15:15:30;100233.31;;;22.82;23.71
45323;BME280;31382;50.200;8.674;2023-04-10T15:20:32;100234.06;;;22.72;23.41
45323;BME280;31382;50.200;8.674;2023-04-10T15:25:33;100230.59;;;22.54;23.50
45323;BME280;31382;50.200;8.674;2023-04-10T15:30:35;100217.88;;;22.43;23.30
45323;BME280;31382;50.200;8.674;2023-04-10T15:35:36;100206.66;;;22.45;23.70
45323;BME280;31382;50.200;8.674;2023-04-10T15:40:37;100196.81;;;22.44;24.08
45323;BME280;31382;50.200;8.674;2023-04-10T15:45:39;100185.84;;;22.44;24.29
45323;BME280;31382;50.200;8.674;2023-04-10T15:50:40;100161.16;;;22.16;23.68
45323;BME280;31382;50.200;8.674;2023-04-10T15:55:43;100160.28;;;22.11;23.52
45323;BME280;31382;50.200;8.674;2023-04-10T16:00:44;100149.09;;;22.17;23.07
45323;BME280;31382;50.200;8.674;2023-04-10T16:05:46;100133.13;;;22.31;23.26
45323;BME280;31382;50.200;8.674;2023-04-10T16:10:47;100132.50;;;22.51;22.89
45323;BME280;31382;50.200;8.674;2023-04-10T16:15:48;100125.78;;;22.69;22.79
45323;BME280;31382;50.200;8.674;2023-04-10T16:20:50;100135.25;;;22.51;22.69
45323;BME280;31382;50.200;8.674;2023-04-10T16:25:51;100128.72;;;22.57;22.91
45323;BME280;31382;50.200;8.674;2023-04-10T16:30:53;100118.50;;;22.48;23.35
45323;BME280;31382;50.200;8.674;2023-04-10T16:35:54;100108.88;;;22.18;23.59
45323;BME280;31382;50.200;8.674;2023-04-10T16:41:00;100114.28;;;21.86;23.44
45323;BME280;31382;50.200;8.674;2023-04-10T16:46:02;100109.34;;;21.61;23.62
45323;BME280;31382;50.200;8.674;2023-04-10T16:51:03;100082.88;;;21.44;24.10
45323;BME280;31382;50.200;8.674;2023-04-10T16:56:06;100089.78;;;21.30;24.08
45323;BME280;31382;50.200;8.674;2023-04-10T17:01:26;100078.63;;;21.14;24.19
45323;BME280;31382;50.200;8.674;2023-04-10T17:06:28;100076.53;;;20.99;24.76
45323;BME280;31382;50.200;8.674;2023-04-10T17:11:30;100067.19;;;20.95;25.01
45323;BME280;31382;50.200;8.674;2023-04-10T17:16:31;100072.66;;;20.95;24.87
45323;BME280;31382;50.200;8.674;2023-04-10T17:21:33;100065.38;;;20.67;25.36
45323;BME280;31382;50.200;8.674;2023-04-10T17:26:34;100045.13;;;20.46;25.25
45323;BME280;31382;50.200;8.674;2023-04-10T17:31:35;100054.78;;;20.37;25.86
45323;BME280;31382;50.200;8.674;2023-04-10T17:36:37;100052.78;;;20.15;26.20
45323;BME280;31382;50.200;8.674;2023-04-10T17:41:38;100045.41;;;19.99;27.01
45323;BME280;31382;50.200;8.674;2023-04-10T17:46:40;100041.53;;;19.95;27.41
45323;BME280;31382;50.200;8.674;2023-04-10T17:51:41;100041.66;;;19.88;27.99
45323;BME280;31382;50.200;8.674;2023-04-10T17:56:42;100033.06;;;19.68;28.33
45323;BME280;31382;50.200;8.674;2023-04-10T18:01:44;100021.00;;;19.64;28.57
45323;BME280;31382;50.200;8.674;2023-04-10T18:06:45;100003.88;;;19.51;28.76
45323;BME280;31382;50.200;8.674;2023-04-10T18:11:47;100019.53;;;19.44;29.15
45323;BME280;31382;50.200;8.674;2023-04-10T18:16:50;100038.66;;;19.32;29.33
45323;BME280;31382;50.200;8.674;2023-04-10T18:21:51;100032.28;;;19.27;29.70
45323;BME280;31382;50.200;8.674;2023-04-10T18:26:53;100017.72;;;19.21;29.84
45323;BME280;31382;50.200;8.674;2023-04-10T18:31:54;100009.69;;;19.14;29.93
45323;BME280;31382;50.200;8.674;2023-04-10T18:36:55;100013.25;;;19.03;29.84
45323;BME280;31382;50.200;8.674;2023-04-10T18:41:57;100000.84;;;18.83;30.26
45323;BME280;31382;50.200;8.674;2023-04-10T18:46:58;100007.22;;;18.77;30.35
45323;BME280;31382;50.200;8.674;2023-04-10T18:52:05;100018.13;;;18.77;30.52
45323;BME280;31382;50.200;8.674;2023-04-10T18:57:07;100022.28;;;18.68;30.67
45323;BME280;31382;50.200;8.674;2023-04-10T19:02:08;100008.91;;;18.67;30.88
45323;BME280;31382;50.200;8.674;2023-04-10T19:07:10;100024.28;;;18.61;31.01
45323;BME280;31382;50.200;8.674;2023-04-10T19:12:12;100031.38;;;18.62;31.23
45323;BME280;31382;50.200;8.674;2023-04-10T19:17:13;100020.84;;;18.54;31.34
45323;BME280;31382;50.200;8.674;2023-04-10T19:22:15;100009.94;;;18.54;31.61
45323;BME280;31382;50.200;8.674;2023-04-10T19:27:17;99995.16;;;18.50;31.88
45323;BME280;31382;50.200;8.674;2023-04-10T19:32:18;99996.34;;;18.54;31.99
45323;BME280;31382;50.200;8.674;2023-04-10T19:37:20;99998.59;;;18.45;32.13
45323;BME280;31382;50.200;8.674;2023-04-10T19:42:21;99989.50;;;18.39;32.63
45323;BME280;31382;50.200;8.674;2023-04-10T19:47:23;99981.31;;;18.39;32.77
45323;BME280;31382;50.200;8.674;2023-04-10T19:52:24;99977.19;;;18.37;32.70
45323;BME280;31382;50.200;8.674;2023-04-10T19:57:26;99965.34;;;18.31;32.89
45323;BME280;31382;50.200;8.674;2023-04-10T20:02:27;99960.16;;;18.30;33.20
45323;BME280;31382;50.200;8.674;2023-04-10T20:07:29;99948.78;;;18.21;33.65
45323;BME280;31382;50.200;8.674;2023-04-10T20:12:31;99955.19;;;18.15;34.39
45323;BME280;31382;50.200;8.674;2023-04-10T20:17:35;99956.75;;;17.80;36.07
45323;BME280;31382;50.200;8.674;2023-04-10T20:22:38;99927.47;;;16.92;39.43
45323;BME280;31382;50.200;8.674;2023-04-10T20:27:39;99922.66;;;16.75;40.52
45323;BME280;31382;50.200;8.674;2023-04-10T20:32:41;99918.13;;;16.69;40.84
45323;BME280;31382;50.200;8.674;2023-04-10T20:37:42;99922.09;;;16.66;41.20
45323;BME280;31382;50.200;8.674;2023-04-10T20:42:44;99920.91;;;16.62;41.90
45323;BME280;31382;50.200;8.674;2023-04-10T20:47:45;99906.44;;;16.50;42.66
45323;BME280;31382;50.200;8.674;2023-04-10T20:52:46;99887.72;;;16.60;43.60
45323;BME280;31382;50.200;8.674;2023-04-10T20:57:48;99887.06;;;16.65;43.87
45323;BME280;31382;50.200;8.674;2023-04-10T21:02:49;99906.59;;;16.55;43.82
45323;BME280;31382;50.200;8.674;2023-04-10T21:07:51;99891.50;;;16.41;44.31
45323;BME280;31382;50.200;8.674;2023-04-10T21:12:53;99888.56;;;16.42;44.42
45323;BME280;31382;50.200;8.674;2023-04-10T21:17:54;99864.16;;;16.42;44.79
45323;BME280;31382;50.200;8.674;2023-04-10T21:22:56;99869.34;;;16.44;45.40
45323;BME280;31382;50.200;8.674;2023-04-10T21:27:57;99854.44;;;16.53;45.35
45323;BME280;31382;50.200;8.674;2023-04-10T21:32:59;99821.56;;;16.61;45.17
45323;BME280;31382;50.200;8.674;2023-04-10T21:38:00;99803.38;;;16.62;45.75
45323;BME280;31382;50.200;8.674;2023-04-10T21:43:03;99810.22;;;16.64;46.13
45323;BME280;31382;50.200;8.674;2023-04-10T21:48:04;99809.28;;;16.59;46.46
45323;BME280;31382;50.200;8.674;2023-04-10T21:53:06;99797.97;;;16.62;46.59
45323;BME280;31382;50.200;8.674;2023-04-10T21:58:07;99788.94;;;16.50;46.61
45323;BME280;31382;50.200;8.674;2023-04-10T22:03:08;99782.16;;;16.40;46.71
45323;BME280;31382;50.200;8.674;2023-04-10T22:08:10;99796.75;;;16.28;47.08
45323;BME280;31382;50.200;8.674;2023-04-10T22:13:13;99799.31;;;16.04;47.56
45323;BME280;31382;50.200;8.674;2023-04-10T22:18:30;99820.09;;;15.92;47.99
45323;BME280;31382;50.200;8.674;2023-04-10T22:23:31;99830.50;;;15.38;49.75
45323;BME280;31382;50.200;8.674;2023-04-10T22:28:33;99837.28;;;15.29;50.48
45323;BME280;31382;50.200;8.674;2023-04-10T22:33:34;99834.34;;;14.98;52.93
45323;BME280;31382;50.200;8.674;2023-04-10T22:38:37;99828.00;;;14.21;56.40
45323;BME280;31382;50.200;8.674;2023-04-10T22:43:39;99856.97;;;13.87;58.47
45323;BME280;31382;50.200;8.674;2023-04-10T22:48:40;99825.41;;;13.54;60.64
45323;BME280;31382;50.200;8.674;2023-04-10T22:53:41;99816.28;;;13.55;60.56
45323;BME280;31382;50.200;8.674;2023-04-10T22:58:43;99809.81;;;13.56;61.21
45323;BME280;31382;50.200;8.674;2023-04-10T23:03:44;99811.69;;;13.56;61.48
45323;BME280;31382;50.200;8.674;2023-04-10T23:08:46;99808.59;;;13.59;61.90
45323;BME280;31382;50.200;8.674;2023-04-10T23:13:47;99816.47;;;13.54;62.44
45323;BME280;31382;50.200;8.674;2023-04-10T23:18:49;99823.34;;;13.36;63.65
45323;BME280;31382;50.200;8.674;2023-04-10T23:23:50;99822.03;;;13.19;64.56
45323;BME280;31382;50.200;8.674;2023-04-10T23:28:52;99826.19;;;13.15;65.46
45323;BME280;31382;50.200;8.674;2023-04-10T23:33:53;99826.63;;;13.18;65.48
45323;BME280;31382;50.200;8.674;2023-04-10T23:38:55;99835.94;;;13.09;66.30
45323;BME280;31382;50.200;8.674;2023-04-10T23:43:56;99847.31;;;12.84;67.51
45323;BME280;31382;50.200;8.674;2023-04-10T23:48:59;99855.34;;;12.71;68.69
45323;BME280;31382;50.200;8.674;2023-04-10T23:54:00;99868.19;;;12.69;68.86
45323;BME280;31382;50.200;8.674;2023-04-10T23:59:01;99817.81;;;12.76;68.71
